sensor_id;sensor_type;location;lat;lon;timestamp;P1;durP1;ratioP1;P2;durP2;ratioP2
64110;SDS011;50401;48.188;11.566;2023-07-24T00:00:09;25.15;;;11.65;;
64110;SDS011;50401;48.188;11.566;2023-07-24T00:02:35;24.58;;;10.85;;
64110;SDS011;50401;48.188;11.566;2023-07-24T00:05:00;28.27;;;11.85;;
64110;SDS011;50401;48.188;11.566;2023-07-24T00:07:25;23.35;;;11.52;;
64110;SDS011;50401;48.188;11.566;2023-07-24T00:09:51;26.23;;;11.85;;
64110;SDS011;50401;48.188;11.566;2023-07-24T00:12:16;25.45;;;10.57;;
64110;SDS011;50401;48.188;11.566;2023-07-24T00:14:41;23.27;;;10.80;;
64110;SDS011;50401;48.188;11.566;2023-07-24T00:17:07;29.17;;;11.57;;
64110;SDS011;50401;48.188;11.566;2023-07-24T00:19:32;21.70;;;10.93;;
64110;SDS011;50401;48.188;11.566;2023-07-24T00:21:58;23.23;;;10.63;;
64110;SDS011;50401;48.188;11.566;2023-07-24T00:24:23;23.52;;;11.50;;
64110;SDS011;50401;48.188;11.566;2023-07-24T00:26:48;22.42;;;11.30;;
64110;SDS011;50401;48.188;11.566;2023-07-24T00:29:14;27.15;;;11.43;;
64110;SDS011;50401;48.188;11.566;2023-07-24T00:31:39;27.10;;;11.48;;
64110;SDS011;50401;48.188;11.566;2023-07-24T00:34:04;23.85;;;10.80;;
64110;SDS011;50401;48.188;11.566;2023-07-24T00:36:30;29.65;;;11.25;;
64110;SDS011;50401;48.188;11.566;2023-07-24T00:38:55;20.63;;;10.43;;
64110;SDS011;50401;48.188;11.566;2023-07-24T00:41:20;24.05;;;11.18;;
64110;SDS011;50401;48.188;11.566;2023-07-24T00:43:46;26.20;;;11.40;;
64110;SDS011;50401;48.188;11.566;2023-07-24T00:46:11;27.48;;;10.57;;
64110;SDS011;50401;48.188;11.566;2023-07-24T00:48:37;22.30;;;11.50;;
64110;SDS011;50401;48.188;11.566;2023-07-24T00:51:03;23.10;;;10.95;;
64110;SDS011;50401;48.188;11.566;2023-07-24T00:53:28;21.80;;;11.00;;
64110;SDS011;50401;48.188;11.566;2023-07-24T00:55:54;25.95;;;12.00;;
64110;SDS011;50401;48.188;11.566;2023-07-24T00:58:19;25.75;;;11.10;;
64110;SDS011;50401;48.188;11.566;2023-07-24T01:00:46;22.63;;;11.52;;
64110;SDS011;50401;48.188;11.566;2023-07-24T01:03:11;26.95;;;11.25;;
64110;SDS011;50401;48.188;11.566;2023-07-24T01:05:37;21.00;;;10.18;;
64110;SDS011;50401;48.188;11.566;2023-07-24T01:08:03;24.70;;;10.93;;
64110;SDS011;50401;48.188;11.566;2023-07-24T01:10:29;26.02;;;11.18;;
64110;SDS011;50401;48.188;11.566;2023-07-24T01:15:48;23.80;;;11.18;;
64110;SDS011;50401;48.188;11.566;2023-07-24T01:18:20;23.45;;;11.32;;
64110;SDS011;50401;48.188;11.566;2023-07-24T01:20:50;27.55;;;11.40;;
64110;SDS011;50401;48.188;11.566;2023-07-24T01:26:08;26.08;;;11.60;;
64110;SDS011;50401;48.188;11.566;2023-07-24T01:28:33;25.38;;;10.55;;
64110;SDS011;50401;48.188;11.566;2023-07-24T01:30:58;24.17;;;11.85;;
64110;SDS011;50401;48.188;11.566;2023-07-24T01:33:24;22.30;;;10.88;;
64110;SDS011;50401;48.188;11.566;2023-07-24T01:35:50;26.50;;;12.23;;
64110;SDS011;50401;48.188;11.566;2023-07-24T01:38:19;25.23;;;11.32;;
64110;SDS011;50401;48.188;11.566;2023-07-24T01:40:46;25.58;;;11.93;;
64110;SDS011;50401;48.188;11.566;2023-07-24T01:43:13;23.17;;;11.68;;
64110;SDS011;50401;48.188;11.566;2023-07-24T01:45:39;27.60;;;11.85;;
64110;SDS011;50401;48.188;11.566;2023-07-24T01:48:04;29.60;;;10.90;;
64110;SDS011;50401;48.188;11.566;2023-07-24T01:50:30;26.70;;;11.68;;
64110;SDS011;50401;48.188;11.566;2023-07-24T01:52:56;25.30;;;11.85;;
64110;SDS011;50401;48.188;11.566;2023-07-24T01:55:21;27.27;;;11.38;;
64110;SDS011;50401;48.188;11.566;2023-07-24T01:57:47;24.52;;;12.02;;
64110;SDS011;50401;48.188;11.566;2023-07-24T02:00:12;24.13;;;11.80;;
64110;SDS011;50401;48.188;11.566;2023-07-24T02:02:37;26.45;;;11.60;;
64110;SDS011;50401;48.188;11.566;2023-07-24T02:05:03;26.23;;;12.60;;
64110;SDS011;50401;48.188;11.566;2023-07-24T02:07:29;32.55;;;12.13;;
64110;SDS011;50401;48.188;11.566;2023-07-24T02:09:54;27.55;;;11.80;;
64110;SDS011;50401;48.188;11.566;2023-07-24T02:12:20;26.80;;;11.70;;
64110;SDS011;50401;48.188;11.566;2023-07-24T02:14:45;22.33;;;11.52;;
64110;SDS011;50401;48.188;11.566;2023-07-24T02:19:40;28.25;;;12.80;;
64110;SDS011;50401;48.188;11.566;2023-07-24T02:22:05;28.17;;;11.77;;
64110;SDS011;50401;48.188;11.566;2023-07-24T02:24:30;25.63;;;11.48;;
64110;SDS011;50401;48.188;11.566;2023-07-24T02:26:56;23.85;;;12.38;;
64110;SDS011;50401;48.188;11.566;2023-07-24T02:29:21;22.67;;;11.95;;
64110;SDS011;50401;48.188;11.566;2023-07-24T02:31:47;25.10;;;12.15;;
64110;SDS011;50401;48.188;11.566;2023-07-24T02:34:13;32.05;;;13.68;;
64110;SDS011;50401;48.188;11.566;2023-07-24T02:36:38;29.63;;;13.95;;
64110;SDS011;50401;48.188;11.566;2023-07-24T02:39:04;26.40;;;12.95;;
64110;SDS011;50401;48.188;11.566;2023-07-24T02:41:29;34.08;;;13.90;;
64110;SDS011;50401;48.188;11.566;2023-07-24T02:43:54;32.08;;;13.13;;
64110;SDS011;50401;48.188;11.566;2023-07-24T02:46:20;32.22;;;13.13;;
64110;SDS011;50401;48.188;11.566;2023-07-24T02:48:45;40.33;;;14.40;;
64110;SDS011;50401;48.188;11.566;2023-07-24T02:51:10;32.17;;;13.90;;
64110;SDS011;50401;48.188;11.566;2023-07-24T02:53:36;28.00;;;13.77;;
64110;SDS011;50401;48.188;11.566;2023-07-24T02:56:02;30.95;;;13.93;;
64110;SDS011;50401;48.188;11.566;2023-07-24T02:58:27;29.33;;;13.35;;
64110;SDS011;50401;48.188;11.566;2023-07-24T03:00:53;37.92;;;13.27;;
64110;SDS011;50401;48.188;11.566;2023-07-24T03:03:18;26.27;;;13.25;;
64110;SDS011;50401;48.188;11.566;2023-07-24T03:05:43;29.15;;;12.90;;
64110;SDS011;50401;48.188;11.566;2023-07-24T03:08:09;29.40;;;12.98;;
64110;SDS011;50401;48.188;11.566;2023-07-24T03:10:34;25.67;;;12.63;;
64110;SDS011;50401;48.188;11.566;2023-07-24T03:12:59;41.17;;;13.77;;
64110;SDS011;50401;48.188;11.566;2023-07-24T03:15:25;33.88;;;14.30;;
64110;SDS011;50401;48.188;11.566;2023-07-24T03:17:50;37.47;;;14.82;;
64110;SDS011;50401;48.188;11.566;2023-07-24T03:20:16;34.20;;;14.38;;
64110;SDS011;50401;48.188;11.566;2023-07-24T03:22:44;37.15;;;14.23;;
64110;SDS011;50401;48.188;11.566;2023-07-24T03:25:10;35.95;;;14.75;;
64110;SDS011;50401;48.188;11.566;2023-07-24T03:27:35;36.45;;;14.43;;
64110;SDS011;50401;48.188;11.566;2023-07-24T03:30:01;32.22;;;13.98;;
64110;SDS011;50401;48.188;11.566;2023-07-24T03:32:26;33.80;;;14.60;;
64110;SDS011;50401;48.188;11.566;2023-07-24T03:34:51;36.88;;;15.45;;
64110;SDS011;50401;48.188;11.566;2023-07-24T03:37:17;34.47;;;15.57;;
64110;SDS011;50401;48.188;11.566;2023-07-24T03:39:43;32.42;;;14.45;;
64110;SDS011;50401;48.188;11.566;2023-07-24T03:42:11;35.90;;;14.00;;
64110;SDS011;50401;48.188;11.566;2023-07-24T03:44:40;43.38;;;14.88;;
64110;SDS011;50401;48.188;11.566;2023-07-24T03:47:06;34.17;;;15.27;;
64110;SDS011;50401;48.188;11.566;2023-07-24T03:49:31;29.08;;;13.40;;
64110;SDS011;50401;48.188;11.566;2023-07-24T03:51:57;29.75;;;13.48;;
64110;SDS011;50401;48.188;11.566;2023-07-24T03:54:22;35.05;;;14.23;;
64110;SDS011;50401;48.188;11.566;2023-07-24T03:56:47;35.85;;;14.60;;
64110;SDS011;50401;48.188;11.566;2023-07-24T03:59:13;35.90;;;14.13;;
64110;SDS011;50401;48.188;11.566;2023-07-24T04:01:38;32.20;;;15.05;;
64110;SDS011;50401;48.188;11.566;2023-07-24T04:04:03;35.08;;;15.15;;
64110;SDS011;50401;48.188;11.566;2023-07-24T04:06:29;35.47;;;13.98;;
64110;SDS011;50401;48.188;11.566;2023-07-24T04:08:54;33.22;;;14.65;;
64110;SDS011;50401;48.188;11.566;2023-07-24T04:11:19;38.35;;;14.70;;
64110;SDS011;50401;48.188;11.566;2023-07-24T04:13:45;31.92;;;15.00;;
64110;SDS011;50401;48.188;11.566;2023-07-24T04:16:10;34.45;;;14.75;;
64110;SDS011;50401;48.188;11.566;2023-07-24T04:18:35;39.28;;;15.90;;
64110;SDS011;50401;48.188;11.566;2023-07-24T04:21:01;32.38;;;14.45;;
64110;SDS011;50401;48.188;11.566;2023-07-24T04:23:26;37.22;;;16.38;;
64110;SDS011;50401;48.188;11.566;2023-07-24T04:25:51;35.47;;;14.85;;
64110;SDS011;50401;48.188;11.566;2023-07-24T04:28:17;42.30;;;14.93;;
64110;SDS011;50401;48.188;11.566;2023-07-24T04:30:42;37.58;;;15.30;;
64110;SDS011;50401;48.188;11.566;2023-07-24T04:33:07;37.17;;;15.05;;
64110;SDS011;50401;48.188;11.566;2023-07-24T04:35:33;34.42;;;15.35;;
64110;SDS011;50401;48.188;11.566;2023-07-24T04:37:58;39.17;;;15.55;;
64110;SDS011;50401;48.188;11.566;2023-07-24T04:40:24;36.38;;;15.75;;
64110;SDS011;50401;48.188;11.566;2023-07-24T04:42:49;35.28;;;14.95;;
64110;SDS011;50401;48.188;11.566;2023-07-24T04:45:14;42.65;;;16.27;;
64110;SDS011;50401;48.188;11.566;2023-07-24T04:47:40;36.40;;;15.68;;
64110;SDS011;50401;48.188;11.566;2023-07-24T04:50:05;43.20;;;17.25;;
64110;SDS011;50401;48.188;11.566;2023-07-24T04:52:31;30.50;;;15.57;;
64110;SDS011;50401;48.188;11.566;2023-07-24T04:54:56;30.15;;;15.07;;
64110;SDS011;50401;48.188;11.566;2023-07-24T04:57:21;34.53;;;15.43;;
64110;SDS011;50401;48.188;11.566;2023-07-24T04:59:47;34.58;;;15.55;;
64110;SDS011;50401;48.188;11.566;2023-07-24T05:02:12;39.22;;;15.60;;
64110;SDS011;50401;48.188;11.566;2023-07-24T05:04:37;36.03;;;15.82;;
64110;SDS011;50401;48.188;11.566;2023-07-24T05:07:03;33.88;;;15.23;;
64110;SDS011;50401;48.188;11.566;2023-07-24T05:09:28;37.80;;;14.98;;
64110;SDS011;50401;48.188;11.566;2023-07-24T05:11:54;34.85;;;16.50;;
64110;SDS011;50401;48.188;11.566;2023-07-24T05:14:19;35.05;;;15.35;;
64110;SDS011;50401;48.188;11.566;2023-07-24T05:16:45;33.70;;;15.25;;
64110;SDS011;50401;48.188;11.566;2023-07-24T05:19:10;30.60;;;14.50;;
64110;SDS011;50401;48.188;11.566;2023-07-24T05:21:35;37.97;;;15.38;;
64110;SDS011;50401;48.188;11.566;2023-07-24T05:24:01;39.28;;;15.95;;
64110;SDS011;50401;48.188;11.566;2023-07-24T05:26:26;34.22;;;15.25;;
64110;SDS011;50401;48.188;11.566;2023-07-24T05:28:51;28.90;;;14.05;;
64110;SDS011;50401;48.188;11.566;2023-07-24T05:31:17;36.78;;;14.27;;
64110;SDS011;50401;48.188;11.566;2023-07-24T05:33:43;32.97;;;15.27;;
64110;SDS011;50401;48.188;11.566;2023-07-24T05:36:08;29.88;;;14.27;;
64110;SDS011;50401;48.188;11.566;2023-07-24T05:38:34;35.08;;;14.68;;
64110;SDS011;50401;48.188;11.566;2023-07-24T05:41:00;32.75;;;13.75;;
64110;SDS011;50401;48.188;11.566;2023-07-24T05:43:27;29.83;;;13.80;;
64110;SDS011;50401;48.188;11.566;2023-07-24T05:45:53;35.00;;;14.75;;
64110;SDS011;50401;48.188;11.566;2023-07-24T05:48:19;34.45;;;15.13;;
64110;SDS011;50401;48.188;11.566;2023-07-24T05:50:45;30.65;;;13.82;;
64110;SDS011;50401;48.188;11.566;2023-07-24T05:53:11;31.50;;;13.80;;
64110;SDS011;50401;48.188;11.566;2023-07-24T05:55:36;28.83;;;14.02;;
64110;SDS011;50401;48.188;11.566;2023-07-24T05:58:02;26.52;;;13.25;;
64110;SDS011;50401;48.188;11.566;2023-07-24T06:00:27;30.25;;;13.15;;
64110;SDS011;50401;48.188;11.566;2023-07-24T06:02:53;29.30;;;13.07;;
64110;SDS011;50401;48.188;11.566;2023-07-24T06:05:18;32.25;;;13.77;;
64110;SDS011;50401;48.188;11.566;2023-07-24T06:07:44;35.17;;;14.10;;
64110;SDS011;50401;48.188;11.566;2023-07-24T06:10:10;33.63;;;13.57;;
64110;SDS011;50401;48.188;11.566;2023-07-24T06:12:35;29.77;;;14.18;;
64110;SDS011;50401;48.188;11.566;2023-07-24T06:15:01;27.20;;;12.27;;
64110;SDS011;50401;48.188;11.566;2023-07-24T06:17:26;26.73;;;13.48;;
64110;SDS011;50401;48.188;11.566;2023-07-24T06:19:51;38.78;;;14.43;;
64110;SDS011;50401;48.188;11.566;2023-07-24T06:22:17;29.55;;;14.13;;
64110;SDS011;50401;48.188;11.566;2023-07-24T06:24:42;29.45;;;14.32;;
64110;SDS011;50401;48.188;11.566;2023-07-24T06:27:07;26.63;;;13.02;;
64110;SDS011;50401;48.188;11.566;2023-07-24T06:29:33;32.83;;;14.38;;
64110;SDS011;50401;48.188;11.566;2023-07-24T06:31:58;28.35;;;14.15;;
64110;SDS011;50401;48.188;11.566;2023-07-24T06:34:24;30.05;;;14.00;;
64110;SDS011;50401;48.188;11.566;2023-07-24T06:36:49;34.22;;;15.45;;
64110;SDS011;50401;48.188;11.566;2023-07-24T06:39:14;26.17;;;13.48;;
64110;SDS011;50401;48.188;11.566;2023-07-24T06:41:40;34.05;;;13.75;;
64110;SDS011;50401;48.188;11.566;2023-07-24T06:44:06;35.25;;;14.48;;
64110;SDS011;50401;48.188;11.566;2023-07-24T06:46:31;29.63;;;14.10;;
64110;SDS011;50401;48.188;11.566;2023-07-24T06:48:57;27.25;;;13.68;;
64110;SDS011;50401;48.188;11.566;2023-07-24T06:51:22;28.75;;;14.73;;
64110;SDS011;50401;48.188;11.566;2023-07-24T06:53:47;31.55;;;14.50;;
64110;SDS011;50401;48.188;11.566;2023-07-24T06:56:13;31.83;;;15.35;;
64110;SDS011;50401;48.188;11.566;2023-07-24T06:58:38;37.28;;;13.90;;
64110;SDS011;50401;48.188;11.566;2023-07-24T07:01:07;34.53;;;14.57;;
64110;SDS011;50401;48.188;11.566;2023-07-24T07:06:01;26.33;;;14.15;;
64110;SDS011;50401;48.188;11.566;2023-07-24T07:08:28;36.55;;;14.80;;
64110;SDS011;50401;48.188;11.566;2023-07-24T07:10:55;38.55;;;15.70;;
64110;SDS011;50401;48.188;11.566;2023-07-24T07:13:24;27.45;;;14.35;;
64110;SDS011;50401;48.188;11.566;2023-07-24T07:15:49;31.90;;;15.60;;
64110;SDS011;50401;48.188;11.566;2023-07-24T07:18:15;35.58;;;15.57;;
64110;SDS011;50401;48.188;11.566;2023-07-24T07:20:47;34.65;;;15.48;;
64110;SDS011;50401;48.188;11.566;2023-07-24T07:23:13;41.65;;;15.50;;
64110;SDS011;50401;48.188;11.566;2023-07-24T07:25:39;32.38;;;15.45;;
64110;SDS011;50401;48.188;11.566;2023-07-24T07:28:05;38.28;;;15.93;;
64110;SDS011;50401;48.188;11.566;2023-07-24T07:30:30;36.58;;;15.63;;
64110;SDS011;50401;48.188;11.566;2023-07-24T07:32:55;36.60;;;14.88;;
64110;SDS011;50401;48.188;11.566;2023-07-24T07:35:21;35.13;;;14.63;;
64110;SDS011;50401;48.188;11.566;2023-07-24T07:37:46;33.00;;;13.82;;
64110;SDS011;50401;48.188;11.566;2023-07-24T07:40:11;32.50;;;13.15;;
64110;SDS011;50401;48.188;11.566;2023-07-24T07:42:37;41.53;;;13.85;;
64110;SDS011;50401;48.188;11.566;2023-07-24T07:45:02;51.90;;;15.40;;
64110;SDS011;50401;48.188;11.566;2023-07-24T07:47:28;33.40;;;13.43;;
64110;SDS011;50401;48.188;11.566;2023-07-24T07:49:53;33.00;;;14.48;;
64110;SDS011;50401;48.188;11.566;2023-07-24T07:52:18;39.90;;;14.73;;
64110;SDS011;50401;48.188;11.566;2023-07-24T07:54:47;38.45;;;15.25;;
64110;SDS011;50401;48.188;11.566;2023-07-24T07:57:13;39.28;;;14.32;;
64110;SDS011;50401;48.188;11.566;2023-07-24T07:59:38;37.35;;;14.65;;
64110;SDS011;50401;48.188;11.566;2023-07-24T08:02:04;33.83;;;14.20;;
64110;SDS011;50401;48.188;11.566;2023-07-24T08:04:29;36.95;;;15.07;;
64110;SDS011;50401;48.188;11.566;2023-07-24T08:06:54;30.65;;;13.98;;
64110;SDS011;50401;48.188;11.566;2023-07-24T08:09:20;30.63;;;14.30;;
64110;SDS011;50401;48.188;11.566;2023-07-24T08:11:46;38.10;;;14.80;;
64110;SDS011;50401;48.188;11.566;2023-07-24T08:14:12;29.55;;;14.32;;
64110;SDS011;50401;48.188;11.566;2023-07-24T08:16:38;35.65;;;14.68;;
64110;SDS011;50401;48.188;11.566;2023-07-24T08:19:03;32.63;;;14.18;;
64110;SDS011;50401;48.188;11.566;2023-07-24T08:21:28;27.45;;;13.85;;
64110;SDS011;50401;48.188;11.566;2023-07-24T08:23:54;28.10;;;12.50;;
64110;SDS011;50401;48.188;11.566;2023-07-24T08:26:19;28.08;;;12.10;;
64110;SDS011;50401;48.188;11.566;2023-07-24T08:28:44;24.15;;;11.65;;
64110;SDS011;50401;48.188;11.566;2023-07-24T08:31:10;24.52;;;11.82;;
64110;SDS011;50401;48.188;11.566;2023-07-24T08:33:35;30.90;;;12.88;;
64110;SDS011;50401;48.188;11.566;2023-07-24T08:36:04;26.00;;;10.65;;
64110;SDS011;50401;48.188;11.566;2023-07-24T08:38:31;24.65;;;11.07;;
64110;SDS011;50401;48.188;11.566;2023-07-24T08:41:06;23.90;;;10.20;;
64110;SDS011;50401;48.188;11.566;2023-07-24T08:43:37;26.67;;;11.68;;
64110;SDS011;50401;48.188;11.566;2023-07-24T08:46:03;31.27;;;12.27;;
64110;SDS011;50401;48.188;11.566;2023-07-24T08:48:34;22.70;;;12.27;;
64110;SDS011;50401;48.188;11.566;2023-07-24T08:51:07;28.33;;;11.00;;
64110;SDS011;50401;48.188;11.566;2023-07-24T08:53:34;23.02;;;11.48;;
64110;SDS011;50401;48.188;11.566;2023-07-24T08:56:05;23.23;;;11.10;;
64110;SDS011;50401;48.188;11.566;2023-07-24T08:58:31;27.25;;;11.40;;
64110;SDS011;50401;48.188;11.566;2023-07-24T09:00:57;30.02;;;11.27;;
64110;SDS011;50401;48.188;11.566;2023-07-24T09:03:25;31.50;;;12.75;;
64110;SDS011;50401;48.188;11.566;2023-07-24T09:05:51;24.48;;;12.18;;
64110;SDS011;50401;48.188;11.566;2023-07-24T09:08:27;23.90;;;11.82;;
64110;SDS011;50401;48.188;11.566;2023-07-24T09:11:03;30.15;;;12.15;;
64110;SDS011;50401;48.188;11.566;2023-07-24T09:13:29;31.75;;;12.40;;
64110;SDS011;50401;48.188;11.566;2023-07-24T09:15:55;30.88;;;13.23;;
64110;SDS011;50401;48.188;11.566;2023-07-24T09:18:21;27.55;;;12.32;;
64110;SDS011;50401;48.188;11.566;2023-07-24T09:20:47;29.38;;;13.25;;
64110;SDS011;50401;48.188;11.566;2023-07-24T09:23:14;28.08;;;12.25;;
64110;SDS011;50401;48.188;11.566;2023-07-24T09:25:40;29.60;;;13.32;;
64110;SDS011;50401;48.188;11.566;2023-07-24T09:28:11;27.10;;;13.15;;
64110;SDS011;50401;48.188;11.566;2023-07-24T09:30:41;24.15;;;12.57;;
64110;SDS011;50401;48.188;11.566;2023-07-24T09:33:08;29.20;;;12.70;;
64110;SDS011;50401;48.188;11.566;2023-07-24T09:35:34;34.17;;;12.82;;
64110;SDS011;50401;48.188;11.566;2023-07-24T09:38:07;36.28;;;12.75;;
64110;SDS011;50401;48.188;11.566;2023-07-24T09:40:38;38.95;;;13.95;;
64110;SDS011;50401;48.188;11.566;2023-07-24T09:43:24;33.30;;;13.35;;
64110;SDS011;50401;48.188;11.566;2023-07-24T09:45:51;33.70;;;13.43;;
64110;SDS011;50401;48.188;11.566;2023-07-24T09:48:18;37.97;;;13.50;;
64110;SDS011;50401;48.188;11.566;2023-07-24T09:50:45;32.05;;;13.25;;
64110;SDS011;50401;48.188;11.566;2023-07-24T09:56:05;36.60;;;11.70;;
64110;SDS011;50401;48.188;11.566;2023-07-24T09:58:32;26.95;;;11.25;;
64110;SDS011;50401;48.188;11.566;2023-07-24T10:01:00;23.52;;;10.75;;
64110;SDS011;50401;48.188;11.566;2023-07-24T10:03:28;27.73;;;11.05;;
64110;SDS011;50401;48.188;11.566;2023-07-24T10:05:54;21.13;;;10.40;;
64110;SDS011;50401;48.188;11.566;2023-07-24T10:08:20;24.02;;;10.68;;
64110;SDS011;50401;48.188;11.566;2023-07-24T10:10:46;26.65;;;11.40;;
64110;SDS011;50401;48.188;11.566;2023-07-24T10:13:17;31.42;;;10.63;;
64110;SDS011;50401;48.188;11.566;2023-07-24T10:15:43;19.02;;;8.77;;
64110;SDS011;50401;48.188;11.566;2023-07-24T10:18:10;21.95;;;9.18;;
64110;SDS011;50401;48.188;11.566;2023-07-24T10:20:36;30.75;;;10.13;;
64110;SDS011;50401;48.188;11.566;2023-07-24T10:23:03;29.87;;;9.57;;
64110;SDS011;50401;48.188;11.566;2023-07-24T10:25:30;26.50;;;8.80;;
64110;SDS011;50401;48.188;11.566;2023-07-24T10:28:00;21.08;;;9.35;;
64110;SDS011;50401;48.188;11.566;2023-07-24T10:30:28;23.52;;;9.93;;
64110;SDS011;50401;48.188;11.566;2023-07-24T10:32:54;20.88;;;8.70;;
64110;SDS011;50401;48.188;11.566;2023-07-24T10:35:39;18.98;;;8.30;;
64110;SDS011;50401;48.188;11.566;2023-07-24T10:38:04;25.40;;;9.15;;
64110;SDS011;50401;48.188;11.566;2023-07-24T10:40:29;19.27;;;8.77;;
64110;SDS011;50401;48.188;11.566;2023-07-24T10:42:59;24.38;;;12.80;;
64110;SDS011;50401;48.188;11.566;2023-07-24T10:45:25;21.88;;;9.10;;
64110;SDS011;50401;48.188;11.566;2023-07-24T10:47:51;19.30;;;8.50;;
64110;SDS011;50401;48.188;11.566;2023-07-24T10:50:17;20.05;;;8.35;;
64110;SDS011;50401;48.188;11.566;2023-07-24T10:52:42;15.95;;;8.25;;
64110;SDS011;50401;48.188;11.566;2023-07-24T10:55:07;18.67;;;8.48;;
64110;SDS011;50401;48.188;11.566;2023-07-24T10:57:33;19.58;;;8.57;;
64110;SDS011;50401;48.188;11.566;2023-07-24T10:59:59;21.02;;;8.75;;
64110;SDS011;50401;48.188;11.566;2023-07-24T11:02:24;20.45;;;8.95;;
64110;SDS011;50401;48.188;11.566;2023-07-24T11:04:50;21.00;;;8.77;;
64110;SDS011;50401;48.188;11.566;2023-07-24T11:07:15;20.58;;;8.30;;
64110;SDS011;50401;48.188;11.566;2023-07-24T11:09:41;18.13;;;8.20;;
64110;SDS011;50401;48.188;11.566;2023-07-24T11:12:10;25.58;;;9.50;;
64110;SDS011;50401;48.188;11.566;2023-07-24T11:14:45;20.98;;;8.23;;
64110;SDS011;50401;48.188;11.566;2023-07-24T11:17:11;20.35;;;9.07;;
64110;SDS011;50401;48.188;11.566;2023-07-24T11:19:36;21.23;;;8.07;;
64110;SDS011;50401;48.188;11.566;2023-07-24T11:22:02;19.48;;;7.85;;
64110;SDS011;50401;48.188;11.566;2023-07-24T11:24:28;20.98;;;6.68;;
64110;SDS011;50401;48.188;11.566;2023-07-24T11:26:54;21.27;;;7.28;;
64110;SDS011;50401;48.188;11.566;2023-07-24T11:29:19;20.10;;;7.68;;
64110;SDS011;50401;48.188;11.566;2023-07-24T11:31:44;18.95;;;7.10;;
64110;SDS011;50401;48.188;11.566;2023-07-24T11:34:09;29.77;;;8.73;;
64110;SDS011;50401;48.188;11.566;2023-07-24T11:36:35;26.85;;;9.45;;
64110;SDS011;50401;48.188;11.566;2023-07-24T11:39:00;23.15;;;8.23;;
64110;SDS011;50401;48.188;11.566;2023-07-24T11:41:26;16.08;;;7.25;;
64110;SDS011;50401;48.188;11.566;2023-07-24T11:43:52;17.70;;;7.82;;
64110;SDS011;50401;48.188;11.566;2023-07-24T11:46:27;15.13;;;7.25;;
64110;SDS011;50401;48.188;11.566;2023-07-24T11:48:54;19.08;;;8.15;;
64110;SDS011;50401;48.188;11.566;2023-07-24T11:51:21;18.30;;;6.90;;
64110;SDS011;50401;48.188;11.566;2023-07-24T11:53:49;14.43;;;6.47;;
64110;SDS011;50401;48.188;11.566;2023-07-24T11:56:15;23.02;;;8.48;;
64110;SDS011;50401;48.188;11.566;2023-07-24T11:58:42;19.25;;;7.43;;
64110;SDS011;50401;48.188;11.566;2023-07-24T12:01:07;25.75;;;7.40;;
64110;SDS011;50401;48.188;11.566;2023-07-24T12:03:33;23.63;;;8.40;;
64110;SDS011;50401;48.188;11.566;2023-07-24T12:05:58;19.63;;;7.72;;
64110;SDS011;50401;48.188;11.566;2023-07-24T12:08:31;20.63;;;7.55;;
64110;SDS011;50401;48.188;11.566;2023-07-24T12:10:58;16.63;;;7.63;;
64110;SDS011;50401;48.188;11.566;2023-07-24T12:13:24;17.95;;;7.47;;
64110;SDS011;50401;48.188;11.566;2023-07-24T12:15:49;16.25;;;7.45;;
64110;SDS011;50401;48.188;11.566;2023-07-24T12:18:15;19.67;;;7.97;;
64110;SDS011;50401;48.188;11.566;2023-07-24T12:20:40;20.10;;;8.27;;
64110;SDS011;50401;48.188;11.566;2023-07-24T12:23:05;25.55;;;9.43;;
64110;SDS011;50401;48.188;11.566;2023-07-24T12:25:31;16.67;;;7.63;;
64110;SDS011;50401;48.188;11.566;2023-07-24T12:27:56;15.23;;;7.38;;
64110;SDS011;50401;48.188;11.566;2023-07-24T12:30:22;25.45;;;7.75;;
64110;SDS011;50401;48.188;11.566;2023-07-24T12:32:47;18.30;;;7.78;;
64110;SDS011;50401;48.188;11.566;2023-07-24T12:35:13;19.48;;;8.40;;
64110;SDS011;50401;48.188;11.566;2023-07-24T12:37:41;20.13;;;8.75;;
64110;SDS011;50401;48.188;11.566;2023-07-24T12:40:07;20.92;;;8.23;;
64110;SDS011;50401;48.188;11.566;2023-07-24T12:42:33;25.92;;;8.27;;
64110;SDS011;50401;48.188;11.566;2023-07-24T12:44:58;23.25;;;9.10;;
64110;SDS011;50401;48.188;11.566;2023-07-24T12:47:24;16.95;;;8.23;;
64110;SDS011;50401;48.188;11.566;2023-07-24T12:49:49;24.38;;;8.63;;
64110;SDS011;50401;48.188;11.566;2023-07-24T12:52:17;18.50;;;8.48;;
64110;SDS011;50401;48.188;11.566;2023-07-24T12:54:43;18.88;;;8.57;;
64110;SDS011;50401;48.188;11.566;2023-07-24T12:57:08;19.63;;;8.07;;
64110;SDS011;50401;48.188;11.566;2023-07-24T12:59:33;14.65;;;8.15;;
64110;SDS011;50401;48.188;11.566;2023-07-24T13:01:59;20.00;;;8.02;;
64110;SDS011;50401;48.188;11.566;2023-07-24T13:04:24;21.10;;;8.50;;
64110;SDS011;50401;48.188;11.566;2023-07-24T13:06:49;18.92;;;6.80;;
64110;SDS011;50401;48.188;11.566;2023-07-24T13:09:15;21.88;;;8.32;;
64110;SDS011;50401;48.188;11.566;2023-07-24T13:11:40;18.55;;;7.95;;
64110;SDS011;50401;48.188;11.566;2023-07-24T13:14:06;16.33;;;7.20;;
64110;SDS011;50401;48.188;11.566;2023-07-24T13:16:31;15.80;;;8.27;;
64110;SDS011;50401;48.188;11.566;2023-07-24T13:18:56;14.95;;;7.85;;
64110;SDS011;50401;48.188;11.566;2023-07-24T13:21:22;15.93;;;7.32;;
64110;SDS011;50401;48.188;11.566;2023-07-24T13:23:48;17.20;;;7.43;;
64110;SDS011;50401;48.188;11.566;2023-07-24T13:26:13;20.38;;;7.20;;
64110;SDS011;50401;48.188;11.566;2023-07-24T13:28:39;16.05;;;7.75;;
64110;SDS011;50401;48.188;11.566;2023-07-24T13:31:15;19.70;;;7.30;;
64110;SDS011;50401;48.188;11.566;2023-07-24T13:33:43;15.43;;;6.87;;
64110;SDS011;50401;48.188;11.566;2023-07-24T13:36:08;21.27;;;7.82;;
64110;SDS011;50401;48.188;11.566;2023-07-24T13:38:34;27.13;;;7.50;;
64110;SDS011;50401;48.188;11.566;2023-07-24T13:41:00;26.88;;;9.18;;
64110;SDS011;50401;48.188;11.566;2023-07-24T13:43:26;18.98;;;7.50;;
64110;SDS011;50401;48.188;11.566;2023-07-24T13:45:52;21.63;;;8.27;;
64110;SDS011;50401;48.188;11.566;2023-07-24T13:48:18;18.25;;;6.82;;
64110;SDS011;50401;48.188;11.566;2023-07-24T13:50:43;22.63;;;8.07;;
64110;SDS011;50401;48.188;11.566;2023-07-24T13:53:08;23.20;;;7.20;;
64110;SDS011;50401;48.188;11.566;2023-07-24T13:55:34;23.80;;;8.02;;
64110;SDS011;50401;48.188;11.566;2023-07-24T13:57:59;19.33;;;6.88;;
64110;SDS011;50401;48.188;11.566;2023-07-24T14:00:25;16.75;;;6.88;;
64110;SDS011;50401;48.188;11.566;2023-07-24T14:02:51;16.10;;;7.60;;
64110;SDS011;50401;48.188;11.566;2023-07-24T14:05:17;20.25;;;7.18;;
64110;SDS011;50401;48.188;11.566;2023-07-24T14:07:42;21.13;;;8.13;;
64110;SDS011;50401;48.188;11.566;2023-07-24T14:10:08;24.42;;;7.28;;
64110;SDS011;50401;48.188;11.566;2023-07-24T14:12:33;22.77;;;7.03;;
64110;SDS011;50401;48.188;11.566;2023-07-24T14:14:59;18.92;;;7.60;;
64110;SDS011;50401;48.188;11.566;2023-07-24T14:17:24;16.27;;;7.35;;
64110;SDS011;50401;48.188;11.566;2023-07-24T14:19:50;15.02;;;7.32;;